Time;durP1;ratioP1;P1;durP2;ratioP2;P2;SDS_P1;SDS_P2;PMS_P1;PMS_P2;Temp;Humidity;BMP_temperature;BMP_pressure;BME280_temperature;BME280_humidity;BME280_pressure;Samples;Min_cycle;Max_cycle;Signal;HPM_P1;HPM_P2
2023/03/28 00:00:01;;;;;;;291.73;102.38;;;;;;;10.27;76.06;98161.16;304466;32;6111;-75
2023/03/28 00:00:12;;;;;;;291.80;102.07;;;;;;;10.28;76.00;98162.84;299773;32;5967;-75
2023/03/28 00:00:22;;;;;;;291.73;102.10;;;;;;;10.29;75.85;98167.13;300956;32;1383;-75
2023/03/28 00:00:32;;;;;;;291.73;102.40;;;;;;;10.26;75.71;98164.72;296072;32;5371;-75
2023/03/28 00:00:43;;;;;;;290.70;103.57;;;;;;;10.28;75.86;98159.38;293332;33;4616;-75
2023/03/28 00:00:56;;;;;;;291.70;104.13;;;;;;;10.26;75.98;98162.09;293025;33;831;-75
2023/03/28 00:01:08;;;;;;;289.45;103.10;;;;;;;10.28;76.05;98168.06;288161;34;1525;-76
2023/03/28 00:01:18;;;;;;;290.67;103.82;;;;;;;10.23;76.15;98149.22;288384;33;7491;-76
2023/03/28 00:03:21;;;;;;;268.54;86.67;;;;;;;10.15;75.76;98159.28;2501714;27;20268;-76
2023/03/28 00:03:34;;;;;;;275.55;91.43;;;;;;;10.17;75.93;98167.88;352811;28;866;-75
2023/03/28 00:03:44;;;;;;;275.05;91.88;;;;;;;10.14;76.11;98162.81;348711;28;977;-77
2023/03/28 00:03:56;;;;;;;277.52;93.97;;;;;;;10.15;76.63;98169.72;347495;28;852;-76
2023/03/28 00:04:10;;;;;;;279.23;95.72;;;;;;;10.19;76.17;98163.41;347561;28;3542;-76
2023/03/28 00:04:21;;;;;;;277.08;93.47;;;;;;;10.13;76.56;98165.53;347462;28;951;-76
2023/03/28 00:04:32;;;;;;;273.33;91.50;;;;;;;10.14;76.59;98162.81;347417;28;1081;-76
2023/03/28 00:04:42;;;;;;;276.60;91.90;;;;;;;10.18;76.24;98168.69;348798;28;868;-76
2023/03/28 00:04:53;;;;;;;277.05;91.88;;;;;;;10.19;76.32;98171.25;348800;28;1210;-76
2023/03/28 00:05:03;;;;;;;277.13;90.67;;;;;;;10.23;76.45;98167.50;350127;28;1209;-76
2023/03/28 00:05:16;;;;;;;276.98;92.03;;;;;;;10.20;76.41;98159.84;350185;28;875;-76
2023/03/28 00:05:26;;;;;;;278.08;93.07;;;;;;;10.21;76.02;98165.94;348625;28;1427;-76
2023/03/28 00:05:39;;;;;;;276.77;92.87;;;;;;;10.14;76.36;98156.75;347447;28;933;-76
2023/03/28 00:05:54;;;;;;;275.90;92.63;;;;;;;10.14;76.30;98160.22;348777;28;1040;-75
2023/03/28 00:06:12;;;;;;;276.42;93.50;;;;;;;10.08;76.56;98162.38;346121;28;958;-76
2023/03/28 00:06:25;;;;;;;276.25;93.40;;;;;;;10.11;76.53;98165.63;346071;28;947;-75
2023/03/28 00:06:37;;;;;;;275.58;92.90;;;;;;;10.10;76.94;98161.34;348870;28;916;-75
2023/03/28 00:06:48;;;;;;;274.73;91.95;;;;;;;10.15;76.84;98169.72;351387;28;1464;-77
2023/03/28 00:06:59;;;;;;;275.52;92.68;;;;;;;10.13;76.94;98169.00;353032;28;985;-77
2023/03/28 00:07:10;;;;;;;275.27;92.73;;;;;;;10.11;76.94;98168.25;348775;28;1198;-76
2023/03/28 00:07:21;;;;;;;275.30;92.78;;;;;;;10.13;77.16;98176.00;350208;28;805;-76
2023/03/28 00:07:32;;;;;;;275.55;92.53;;;;;;;10.15;77.05;98174.13;349945;28;1424;-76
2023/03/28 00:07:42;;;;;;;277.20;92.53;;;;;;;10.08;77.06;98163.19;348607;28;1298;-76
2023/03/28 00:07:53;;;;;;;277.17;93.13;;;;;;;10.09;77.07;98170.09;348630;28;1130;-76
2023/03/28 00:08:04;;;;;;;277.83;94.07;;;;;;;10.11;77.10;98172.63;346041;28;1319;-76
2023/03/28 00:08:17;;;;;;;276.10;92.88;;;;;;;10.11;77.16;98168.25;346018;28;872;-76
2023/03/28 00:08:27;;;;;;;275.48;92.07;;;;;;;10.17;76.91;98175.69;347492;28;920;-76
2023/03/28 00:08:38;;;;;;;275.88;93.03;;;;;;;10.17;76.91;98167.03;347392;28;1000;-76
2023/03/28 00:08:49;;;;;;;275.38;93.03;;;;;;;10.20;76.83;98167.72;350223;28;911;-75
2023/03/28 00:09:00;;;;;;;277.60;94.28;;;;;;;10.24;76.98;98171.81;349469;28;1507;-76
2023/03/28 00:09:11;;;;;;;277.55;93.97;;;;;;;10.26;76.73;98169.09;345615;28;881;-75
2023/03/28 00:09:21;;;;;;;277.57;93.93;;;;;;;10.27;76.83;98178.63;347350;28;1319;-74
2023/03/28 00:09:32;;;;;;;276.75;93.60;;;;;;;10.23;76.76;98172.75;345786;28;1361;-74
2023/03/28 00:09:42;;;;;;;276.85;94.03;;;;;;;10.27;77.02;98178.63;346380;28;1702;-75
2023/03/28 00:09:53;;;;;;;277.90;94.53;;;;;;;10.26;76.68;98175.16;345953;28;1235;-75
2023/03/28 00:10:05;;;;;;;276.33;93.18;;;;;;;10.28;77.09;98181.13;343206;28;1321;-75
2023/03/28 00:10:15;;;;;;;276.13;92.07;;;;;;;10.31;76.88;98175.72;340237;28;1274;-75
2023/03/28 00:10:26;;;;;;;276.43;93.00;;;;;;;10.28;76.64;98175.91;340653;28;1367;-75
2023/03/28 00:10:37;;;;;;;276.75;94.22;;;;;;;10.25;76.86;98168.25;343398;28;928;-75
2023/03/28 00:10:47;;;;;;;275.97;94.67;;;;;;;10.24;76.49;98170.97;341969;28;1565;-75
2023/03/28 00:11:02;;;;;;;276.20;94.68;;;;;;;10.24;76.72;98170.97;339208;29;1228;-75
2023/03/28 00:11:22;;;;;;;277.25;93.93;;;;;;;10.25;76.39;98173.50;339831;28;1260;-75
2023/03/28 00:11:32;;;;;;;278.48;94.50;;;;;;;10.25;76.45;98175.25;337788;29;1208;-76
2023/03/28 00:11:43;;;;;;;278.05;93.80;;;;;;;10.21;76.57;98168.53;340371;28;1315;-75
2023/03/28 00:11:54;;;;;;;278.38;94.78;;;;;;;10.22;76.52;98170.22;340456;28;1333;-75
2023/03/28 00:12:04;;;;;;;278.30;94.43;;;;;;;10.15;77.20;98174.97;338031;29;1543;-75
2023/03/28 00:12:15;;;;;;;277.73;94.32;;;;;;;10.09;77.18;98164.03;340092;29;1123;-75
2023/03/28 00:12:26;;;;;;;277.93;93.97;;;;;;;9.99;77.27;98163.75;341856;28;1411;-75
2023/03/28 00:12:36;;;;;;;277.15;93.53;;;;;;;9.97;77.47;98165.63;340713;29;960;-75
2023/03/28 00:12:46;;;;;;;278.67;94.03;;;;;;;9.99;77.23;98169.00;338030;29;1215;-75
2023/03/28 00:12:57;;;;;;;278.50;94.17;;;;;;;10.00;77.55;98173.28;337622;29;1253;-75
2023/03/28 00:13:08;;;;;;;278.73;93.68;;;;;;;10.01;77.33;98180.19;339428;29;1178;-75
2023/03/28 00:13:18;;;;;;;278.27;93.85;;;;;;;10.00;77.46;98175.91;330304;29;4154;-75
2023/03/28 00:13:29;;;;;;;279.40;93.63;;;;;;;10.03;77.30;98175.72;332268;29;3424;-75
2023/03/28 00:13:39;;;;;;;280.10;94.43;;;;;;;10.04;77.59;98160.88;334603;29;1608;-75
2023/03/28 00:13:59;;;;;;;279.30;92.60;;;;;;;10.10;77.34;98171.78;326714;30;1376;-75
2023/03/28 00:14:12;;;;;;;278.05;91.28;;;;;;;10.08;77.46;98168.44;321942;30;1519;-76
2023/03/28 00:14:23;;;;;;;276.20;91.50;;;;;;;10.05;77.33;98163.38;321952;30;1299;-76
2023/03/28 00:14:37;;;;;;;273.67;89.70;;;;;;;10.05;77.51;98173.84;319671;30;857;-76
2023/03/28 00:14:48;;;;;;;273.68;90.14;;;;;;;10.01;77.51;98169.75;321845;30;1423;-76
2023/03/28 00:14:59;;;;;;;275.60;91.83;;;;;;;10.01;77.29;98167.13;323005;30;1152;-76
2023/03/28 00:15:10;;;;;;;278.73;93.93;;;;;;;9.93;77.22;98158.94;321550;30;1763;-76
2023/03/28 00:15:21;;;;;;;281.23;95.97;;;;;;;9.95;77.05;98172.75;322077;30;888;-76
2023/03/28 00:15:32;;;;;;;280.23;93.82;;;;;;;9.96;77.11;98154.34;319142;30;1883;-76
2023/03/28 00:15:42;;;;;;;279.70;93.20;;;;;;;9.98;77.21;98167.31;318164;30;2320;-76
2023/03/28 00:15:53;;;;;;;278.05;92.25;;;;;;;10.00;76.87;98173.28;319628;30;1237;-76
2023/03/28 00:16:06;;;;;;;276.73;92.87;;;;;;;10.03;76.78;98175.72;313873;31;1290;-75
2023/03/28 00:16:16;;;;;;;275.27;92.00;;;;;;;10.03;76.64;98170.50;319552;30;2339;-75
2023/03/28 00:16:33;;;;;;;277.40;92.80;;;;;;;10.08;76.50;98175.44;317641;30;1928;-75
2023/03/28 00:16:44;;;;;;;279.88;94.88;;;;;;;10.09;77.08;98170.09;317292;30;1137;-75
2023/03/28 00:16:56;;;;;;;280.50;95.85;;;;;;;10.09;76.99;98164.88;319622;30;1378;-75
2023/03/28 00:17:06;;;;;;;279.00;94.36;;;;;;;10.13;77.21;98171.59;315996;31;1477;-75
2023/03/28 00:17:16;;;;;;;279.13;94.73;;;;;;;10.15;77.02;98169.72;311688;31;1820;-75
2023/03/28 00:17:27;;;;;;;276.63;93.90;;;;;;;10.13;76.88;98176.00;312919;31;2620;-75
2023/03/28 00:17:40;;;;;;;276.23;94.33;;;;;;;10.18;76.60;98176.53;316174;31;794;-75
2023/03/28 00:17:51;;;;;;;274.83;93.25;;;;;;;10.17;76.51;98167.88;313902;31;858;-75
2023/03/28 00:18:01;;;;;;;276.05;93.75;;;;;;;10.21;76.73;98177.22;313029;31;2959;-75
2023/03/28 00:18:12;;;;;;;275.63;93.97;;;;;;;10.24;76.58;98174.41;310769;31;3637;-75
2023/03/28 00:18:22;;;;;;;277.87;95.57;;;;;;;10.19;76.87;98168.63;311755;31;847;-75
2023/03/28 00:18:36;;;;;;;279.07;95.73;;;;;;;10.21;76.79;98173.78;313091;31;2885;-76
2023/03/28 00:18:49;;;;;;;280.98;95.72;;;;;;;10.16;76.36;98166.19;314939;31;2583;-76
2023/03/28 00:19:01;;;;;;;278.13;93.65;;;;;;;10.14;76.75;98173.28;314645;31;1575;-75
2023/03/28 00:19:16;;;;;;;276.77;93.03;;;;;;;10.12;76.40;98177.75;312105;31;1990;-76
2023/03/28 00:19:32;;;;;;;275.20;92.43;;;;;;;10.13;76.31;98173.38;308796;31;2682;-76
2023/03/28 00:19:45;;;;;;;275.38;93.35;;;;;;;10.08;76.22;98162.38;307791;31;3768;-76
2023/03/28 00:19:56;;;;;;;275.17;93.03;;;;;;;10.11;76.12;98177.84;307467;31;3940;-78
2023/03/28 00:20:09;;;;;;;275.25;92.75;;;;;;;10.08;76.35;98168.44;304121;32;1366;-76
2023/03/28 00:20:19;;;;;;;278.13;94.45;;;;;;;10.05;76.49;98173.00;302063;32;1242;-76
2023/03/28 00:20:31;;;;;;;278.70;95.87;;;;;;;10.00;76.56;98174.13;303215;32;5146;-76
2023/03/28 00:20:42;;;;;;;280.08;96.88;;;;;;;9.99;76.40;98163.75;299818;32;4699;-77
2023/03/28 00:20:52;;;;;;;278.75;96.35;;;;;;;9.98;76.29;98172.53;299076;33;834;-76
2023/03/28 00:21:06;;;;;;;278.77;95.17;;;;;;;9.99;75.92;98169.00;301024;32;4307;-76
2023/03/28 00:21:28;;;;;;;276.92;93.75;;;;;;;10.01;76.11;98164.50;304677;32;2363;-76
2023/03/28 00:21:40;;;;;;;276.98;93.88;;;;;;;10.02;75.71;98168.81;301872;32;4538;-76
2023/03/28 00:21:50;;;;;;;277.48;94.95;;;;;;;10.03;76.02;98180.94;299996;32;897;-76
2023/03/28 00:22:01;;;;;;;279.17;94.60;;;;;;;10.01;75.90;98172.34;296260;32;5393;-76
2023/03/28 00:22:12;;;;;;;279.48;94.40;;;;;;;9.98;76.17;98169.94;296838;32;6175;-76
2023/03/28 00:22:22;;;;;;;280.63;95.53;;;;;;;9.92;75.88;98162.50;299277;32;3675;-76
2023/03/28 00:22:33;;;;;;;280.65;97.05;;;;;;;9.96;75.91;98169.22;296244;32;6680;-77
2023/03/28 00:22:43;;;;;;;278.70;96.73;;;;;;;10.00;76.01;98170.66;293599;33;6522;-76
2023/03/28 00:22:53;;;;;;;278.73;95.73;;;;;;;9.99;76.35;98171.59;292743;33;6522;-76
2023/03/28 00:23:04;;;;;;;279.33;95.05;;;;;;;10.00;75.75;98171.50;296858;33;1381;-76
2023/03/28 00:23:14;;;;;;;281.13;95.15;;;;;;;10.01;75.98;98172.34;293150;33;5692;-76
2023/03/28 00:23:26;;;;;;;280.67;95.93;;;;;;;10.02;75.84;98184.50;292194;33;3822;-76
2023/03/28 00:23:37;;;;;;;278.98;95.93;;;;;;;9.99;76.14;98169.84;292084;33;815;-76
2023/03/28 00:23:51;;;;;;;279.50;97.17;;;;;;;10.02;75.85;98171.41;289718;33;6032;-76
2023/03/28 00:24:04;;;;;;;279.85;97.68;;;;;;;9.99;75.51;98176.84;288935;34;5978;-76
2023/03/28 00:25:56;;;;;;;269.32;87.70;;;;;;;10.11;76.01;98183.09;2501502;27;20476;-76
2023/03/28 00:26:07;;;;;;;276.17;90.67;;;;;;;10.08;76.00;98184.13;352882;28;1316;-76
2023/03/28 00:26:18;;;;;;;275.92;91.22;;;;;;;10.09;76.21;98182.34;350207;28;1460;-76
2023/03/28 00:26:33;;;;;;;275.85;91.63;;;;;;;10.07;76.21;98182.44;348664;28;1318;-76
2023/03/28 00:26:44;;;;;;;274.58;90.88;;;;;;;10.09;76.25;98184.94;347299;28;1211;-75
2023/03/28 00:26:54;;;;;;;277.48;97.85;;;;;;;10.13;75.80;98176.81;345169;28;1124;-75
2023/03/28 00:27:06;;;;;;;279.20;98.87;;;;;;;10.08;75.57;98176.28;348754;28;1473;-76
2023/03/28 00:27:16;;;;;;;279.33;97.00;;;;;;;10.02;75.43;98172.25;348886;28;1380;-76
2023/03/28 00:27:27;;;;;;;276.13;91.90;;;;;;;9.98;74.91;98177.78;350097;28;1491;-77
2023/03/28 00:27:37;;;;;;;274.98;91.30;;;;;;;9.99;74.98;98190.75;348447;28;912;-77
2023/03/28 00:27:48;;;;;;;276.47;92.53;;;;;;;9.99;75.15;98189.91;347303;28;839;-77
2023/03/28 00:27:58;;;;;;;277.53;93.53;;;;;;;9.96;75.55;98184.91;347441;28;888;-77
2023/03/28 00:28:09;;;;;;;279.05;93.35;;;;;;;9.99;75.64;98179.44;347203;28;913;-77
2023/03/28 00:28:19;;;;;;;279.23;92.63;;;;;;;9.97;75.29;98170.88;345558;28;955;-77
2023/03/28 00:28:30;;;;;;;277.92;91.80;;;;;;;10.04;75.30;98181.78;347325;28;1225;-77
2023/03/28 00:28:40;;;;;;;275.70;92.30;;;;;;;10.07;75.35;98182.44;348669;28;1286;-77
2023/03/28 00:28:51;;;;;;;274.65;92.68;;;;;;;10.05;74.97;98178.22;348737;28;1255;-77
2023/03/28 00:29:03;;;;;;;275.42;92.47;;;;;;;10.06;75.37;98190.38;350213;28;986;-75
2023/03/28 00:29:14;;;;;;;277.08;93.32;;;;;;;10.08;74.87;98197.19;347389;28;1486;-76
2023/03/28 00:29:25;;;;;;;277.23;93.63;;;;;;;10.09;74.89;98180.56;349962;28;1805;-76
2023/03/28 00:29:35;;;;;;;275.83;93.20;;;;;;;10.08;74.94;98191.97;350112;28;1235;-76
2023/03/28 00:29:45;;;;;;;274.20;91.43;;;;;;;10.07;74.57;98187.66;350119;28;1187;-75
2023/03/28 00:29:56;;;;;;;272.80;90.27;;;;;;;10.09;74.93;98196.25;347321;28;1179;-75
2023/03/28 00:30:08;;;;;;;275.60;91.85;;;;;;;10.05;75.12;98184.31;345646;28;1329;-75
2023/03/28 00:30:18;;;;;;;279.05;93.18;;;;;;;10.10;75.30;98192.69;347263;28;1337;-76
2023/03/28 00:30:29;;;;;;;280.35;93.13;;;;;;;10.09;75.60;98196.25;346046;28;884;-75
2023/03/28 00:30:40;;;;;;;278.07;92.50;;;;;;;10.08;75.57;98191.97;346001;28;888;-75
2023/03/28 00:30:50;;;;;;;276.70;91.72;;;;;;;10.11;75.46;98183.09;347389;28;1331;-75
2023/03/28 00:31:02;;;;;;;276.03;92.50;;;;;;;10.11;75.88;98183.94;347347;28;1231;-75
2023/03/28 00:31:13;;;;;;;276.75;92.30;;;;;;;10.12;75.69;98188.22;346129;28;1450;-75
2023/03/28 00:31:24;;;;;;;277.35;92.95;;;;;;;10.12;75.76;98188.22;344697;28;936;-75
2023/03/28 00:31:36;;;;;;;277.55;93.60;;;;;;;10.06;75.64;98180.75;344887;28;3261;-75
2023/03/28 00:31:48;;;;;;;275.90;92.30;;;;;;;10.04;75.76;98181.78;344589;28;1259;-76
2023/03/28 00:31:59;;;;;;;273.92;92.20;;;;;;;10.08;75.86;98191.13;340726;29;983;-76
2023/03/28 00:32:09;;;;;;;273.45;91.47;;;;;;;10.08;75.77;98194.56;342920;28;1009;-76
2023/03/28 00:32:20;;;;;;;274.30;91.93;;;;;;;10.09;75.67;98196.25;339836;29;1391;-76
2023/03/28 00:32:30;;;;;;;275.70;92.03;;;;;;;10.12;75.97;98188.22;339214;28;1341;-75
2023/03/28 00:32:41;;;;;;;277.67;91.95;;;;;;;10.17;75.92;98198.41;340756;29;814;-76
2023/03/28 00:32:51;;;;;;;276.53;91.30;;;;;;;10.15;76.01;98192.41;340822;28;1202;-76
2023/03/28 00:33:04;;;;;;;275.38;90.63;;;;;;;10.19;75.79;98180.84;344721;28;864;-76
2023/03/28 00:33:16;;;;;;;273.38;90.72;;;;;;;10.16;75.50;98194.94;344555;28;1312;-76
2023/03/28 00:33:27;;;;;;;273.90;91.15;;;;;;;10.15;75.54;98189.81;343304;28;1335;-76
2023/03/28 00:33:38;;;;;;;274.70;91.18;;;;;;;10.12;76.14;98196.06;340897;28;909;-76
2023/03/28 00:33:48;;;;;;;274.90;92.33;;;;;;;10.10;76.01;98191.84;340362;28;1174;-76
2023/03/28 00:33:58;;;;;;;277.13;92.70;;;;;;;10.12;76.14;98196.06;339312;28;1319;-76
2023/03/28 00:34:09;;;;;;;278.10;93.57;;;;;;;10.13;76.24;98189.06;341442;28;1455;-75
2023/03/28 00:34:19;;;;;;;278.35;93.95;;;;;;;10.08;76.08;98193.72;340572;28;1251;-75
2023/03/28 00:34:30;;;;;;;275.83;92.78;;;;;;;10.04;76.27;98190.47;339401;29;864;-75
2023/03/28 00:34:40;;;;;;;277.33;93.33;;;;;;;10.01;75.99;98198.50;334328;29;791;-76
2023/03/28 00:34:51;;;;;;;277.97;93.23;;;;;;;10.00;75.62;98189.81;335892;29;1319;-75
2023/03/28 00:35:01;;;;;;;279.55;94.45;;;;;;;10.02;75.67;98192.31;336898;29;1051;-75
2023/03/28 00:35:12;;;;;;;279.20;94.00;;;;;;;10.00;76.17;98191.59;336766;29;1290;-77
2023/03/28 00:35:22;;;;;;;277.10;92.28;;;;;;;9.95;76.18;98186.66;335821;29;955;-76
2023/03/28 00:35:34;;;;;;;278.43;92.47;;;;;;;9.97;76.17;98189.16;337850;29;1056;-76
2023/03/28 00:35:44;;;;;;;279.23;93.70;;;;;;;9.95;75.88;98189.28;338082;29;906;-76
2023/03/28 00:35:55;;;;;;;277.33;93.05;;;;;;;9.96;75.84;98184.91;336456;29;1439;-76
2023/03/28 00:36:09;;;;;;;274.83;93.03;;;;;;;9.97;75.64;98191.75;335154;29;1656;-75
2023/03/28 00:36:22;;;;;;;274.02;93.03;;;;;;;9.98;75.95;98194.28;331665;29;1435;-76
2023/03/28 00:36:33;;;;;;;276.55;93.88;;;;;;;10.01;75.65;98183.66;330775;29;2131;-76
2023/03/28 00:36:43;;;;;;;277.10;93.93;;;;;;;10.02;75.92;98189.72;332988;29;835;-76
2023/03/28 00:36:54;;;;;;;275.67;92.25;;;;;;;10.04;75.94;98203.53;333381;29;2345;-76
2023/03/28 00:37:04;;;;;;;274.47;91.83;;;;;;;10.02;75.86;98189.72;333803;29;1587;-76
2023/03/28 00:37:16;;;;;;;273.70;91.57;;;;;;;10.01;75.63;98195.88;334233;29;831;-76
2023/03/28 00:37:26;;;;;;;273.42;92.28;;;;;;;10.03;75.84;98191.41;334112;29;1537;-76
2023/03/28 00:37:37;;;;;;;273.67;92.63;;;;;;;10.05;75.69;98201.75;329772;29;1265;-76
2023/03/28 00:37:50;;;;;;;273.67;92.77;;;;;;;10.04;75.47;98189.63;329214;29;2035;-76
2023/03/28 00:38:00;;;;;;;274.52;93.82;;;;;;;10.02;75.53;98195.78;330551;29;907;-76
2023/03/28 00:38:12;;;;;;;274.47;94.17;;;;;;;10.02;76.05;98197.56;325406;30;1409;-76
2023/03/28 00:38:23;;;;;;;274.20;92.70;;;;;;;10.01;76.20;98199.31;322110;30;2096;-76
2023/03/28 00:38:33;;;;;;;276.25;93.47;;;;;;;9.98;75.90;98190.84;320333;30;2254;-76
2023/03/28 00:38:44;;;;;;;278.37;93.97;;;;;;;9.97;75.77;98199.59;318500;31;1175;-75
2023/03/28 00:38:56;;;;;;;280.58;94.32;;;;;;;9.96;75.45;98184.91;312517;31;2326;-76
2023/03/28 00:39:09;;;;;;;278.98;93.50;;;;;;;9.92;74.92;98178.16;316159;31;2634;-76
2023/03/28 00:39:19;;;;;;;275.33;91.60;;;;;;;9.88;75.11;98177.53;314778;31;1844;-77
2023/03/28 00:39:30;;;;;;;274.27;90.73;;;;;;;9.86;75.03;98178.53;315075;31;1287;-76
2023/03/28 00:39:42;;;;;;;275.42;91.28;;;;;;;9.88;74.91;98192.34;315075;31;890;-76
2023/03/28 00:39:53;;;;;;;277.73;93.00;;;;;;;9.89;74.90;98188.81;313544;31;2052;-76
2023/03/28 00:40:06;;;;;;;278.23;93.47;;;;;;;9.91;74.88;98192.16;310875;31;2508;-76
2023/03/28 00:40:16;;;;;;;277.38;91.60;;;;;;;9.90;74.76;98190.50;312205;31;3015;-76
2023/03/28 00:40:29;;;;;;;276.33;90.80;;;;;;;9.84;74.75;98190.84;311764;31;934;-76
2023/03/28 00:40:40;;;;;;;276.42;91.78;;;;;;;9.89;74.59;98188.81;308062;31;3846;-75
2023/03/28 00:40:54;;;;;;;276.73;92.70;;;;;;;9.87;74.71;98193.28;308022;31;5231;-75
2023/03/28 00:41:08;;;;;;;276.08;93.10;;;;;;;9.88;74.95;98210.66;309585;31;3226;-75
2023/03/28 00:41:20;;;;;;;274.35;92.18;;;;;;;9.88;75.02;98193.19;307694;31;2929;-75
2023/03/28 00:41:33;;;;;;;273.80;92.10;;;;;;;9.89;74.80;98199.25;305969;32;2449;-75
2023/03/28 00:41:43;;;;;;;273.38;91.70;;;;;;;9.91;74.64;98202.63;305275;32;1113;-75
2023/03/28 00:41:54;;;;;;;273.20;92.07;;;;;;;9.95;75.06;98206.72;304466;32;2142;-76
2023/03/28 00:42:05;;;;;;;275.10;92.85;;;;;;;9.94;74.95;98184.16;301955;32;2512;-75
2023/03/28 00:42:16;;;;;;;275.53;93.33;;;;;;;9.91;74.87;98195.63;300296;32;3118;-75
2023/03/28 00:42:27;;;;;;;276.42;93.45;;;;;;;9.91;74.75;98192.16;301974;32;1564;-75
2023/03/28 00:42:40;;;;;;;277.30;94.50;;;;;;;9.91;74.67;98186.94;298058;32;3423;-75
2023/03/28 00:42:51;;;;;;;277.08;93.80;;;;;;;9.89;74.53;98183.59;296037;33;5244;-76
2023/03/28 00:43:01;;;;;;;275.95;93.30;;;;;;;9.90;74.60;98195.72;294223;33;4248;-76
2023/03/28 00:43:12;;;;;;;275.25;92.95;;;;;;;9.87;74.48;98190.69;294878;33;1807;-76
2023/03/28 00:43:37;;;;;;;274.77;92.32;;;;;;;9.77;74.89;98189.56;294765;33;4145;-75
2023/03/28 00:43:52;;;;;;;272.83;90.13;;;;;;;9.84;75.27;98193.47;297484;33;3398;-76
2023/03/28 00:44:37;;;;;;;274.33;91.65;;;;;;;9.91;74.83;98200.84;296692;32;3247;-76
2023/03/28 00:44:49;;;;;;;273.27;90.38;;;;;;;9.93;74.93;98190.31;297537;32;4811;-75
2023/03/28 00:45:00;;;;;;;274.52;92.05;;;;;;;9.94;74.67;98205.06;297881;33;2146;-75
2023/03/28 00:45:11;;;;;;;275.70;92.60;;;;;;;9.95;74.75;98198.91;296638;33;6194;-77
2023/03/28 00:45:22;;;;;;;275.38;92.82;;;;;;;9.95;74.58;98193.66;295407;33;7100;-76
2023/03/28 00:45:32;;;;;;;277.25;94.10;;;;;;;9.95;74.87;98199.72;292288;33;5797;-76
2023/03/28 00:45:44;;;;;;;278.83;94.70;;;;;;;9.97;74.75;98203.06;291097;34;857;-76
2023/03/28 00:45:54;;;;;;;278.27;94.20;;;;;;;9.90;74.41;98185.25;287270;34;5423;-77
2023/03/28 00:46:08;;;;;;;278.47;94.87;;;;;;;9.84;74.53;98193.47;288011;33;4317;-77
2023/03/28 00:46:22;;;;;;;279.52;96.03;;;;;;;9.85;74.79;98193.38;286718;34;5749;-76
2023/03/28 00:46:35;;;;;;;279.42;95.57;;;;;;;9.84;74.68;98196.09;282690;34;7823;-76
2023/03/28 00:46:45;;;;;;;278.73;94.82;;;;;;;9.83;75.01;98199.63;283525;34;789;-76
2023/03/28 00:46:56;;;;;;;277.13;94.67;;;;;;;9.82;74.65;98197.94;281235;34;6432;-76
2023/03/28 00:49:02;;;;;;;267.33;86.47;;;;;;;9.82;74.43;98204.03;2501720;27;20269;-75
2023/03/28 00:49:23;;;;;;;272.10;89.47;;;;;;;9.83;74.39;98204.84;351666;28;943;-76
2023/03/28 00:49:34;;;;;;;273.52;89.63;;;;;;;9.80;74.48;98197.19;350183;28;1079;-76
2023/03/28 00:49:45;;;;;;;273.33;89.20;;;;;;;9.83;74.42;98200.47;350084;28;1238;-76
2023/03/28 00:50:12;;;;;;;275.08;91.53;;;;;;;9.85;74.43;98200.38;347512;28;3273;-75
2023/03/28 00:50:45;;;;;;;271.15;88.53;;;;;;;9.85;74.37;98208.22;348533;28;1339;-75
2023/03/28 00:51:02;;;;;;;273.23;89.82;;;;;;;9.80;74.43;98197.19;347335;28;1319;-76
2023/03/28 00:51:13;;;;;;;274.17;91.85;;;;;;;9.78;74.35;98201.69;344745;28;1079;-76
2023/03/28 00:51:26;;;;;;;272.10;90.65;;;;;;;9.78;74.65;98206.91;344638;28;1331;-76
2023/03/28 00:51:38;;;;;;;269.92;88.65;;;;;;;9.78;74.69;98206.91;347122;28;826;-76
2023/03/28 00:51:56;;;;;;;270.70;89.03;;;;;;;9.72;74.47;98202.88;347287;28;1436;-76
2023/03/28 00:52:07;;;;;;;272.80;89.85;;;;;;;9.73;74.34;98207.19;348760;28;966;-76
2023/03/28 00:52:17;;;;;;;273.23;90.03;;;;;;;9.73;74.41;98201.13;346360;28;1386;-76
2023/03/28 00:52:28;;;;;;;274.33;90.45;;;;;;;9.78;74.46;98206.91;347429;28;877;-75
2023/03/28 00:53:18;;;;;;;273.88;91.13;;;;;;;9.78;74.94;98212.13;345942;28;1342;-75
2023/03/28 00:53:28;;;;;;;270.42;87.82;;;;;;;9.76;74.71;98195.72;337892;29;868;-76
2023/03/28 00:53:40;;;;;;;271.55;88.72;;;;;;;9.71;74.93;98224.72;337935;29;902;-76
2023/03/28 00:53:51;;;;;;;272.15;89.78;;;;;;;9.71;74.66;98195.13;339874;29;1290;-76
2023/03/28 00:54:01;;;;;;;271.25;90.75;;;;;;;9.70;74.32;98204.75;340644;29;983;-75
2023/03/28 00:54:14;;;;;;;271.73;91.23;;;;;;;9.66;74.50;98205.84;342019;28;951;-75
2023/03/28 00:54:28;;;;;;;272.05;91.45;;;;;;;9.66;74.64;98211.94;340622;29;951;-75
2023/03/28 00:54:39;;;;;;;273.00;91.25;;;;;;;9.66;74.58;98193.63;341972;28;1194;-76
2023/03/28 00:54:49;;;;;;;273.50;90.60;;;;;;;9.64;74.85;98205.09;340655;28;885;-75
2023/03/28 00:55:00;;;;;;;275.83;91.37;;;;;;;9.66;74.86;98216.31;339211;28;1324;-75
2023/03/28 00:55:14;;;;;;;275.73;90.37;;;;;;;9.65;74.70;98202.41;337985;29;1461;-75
2023/03/28 00:55:35;;;;;;;273.92;91.18;;;;;;;9.72;74.43;98210.72;340705;29;1387;-75
2023/03/28 00:55:50;;;;;;;276.05;92.38;;;;;;;9.74;74.54;98206.25;341463;28;1313;-76
2023/03/28 00:56:03;;;;;;;274.56;91.04;;;;;;;9.76;74.82;98212.22;340798;29;927;-75
2023/03/28 00:56:14;;;;;;;272.00;90.05;;;;;;;9.74;74.66;98210.63;339347;29;917;-75
2023/03/28 00:56:25;;;;;;;271.83;89.05;;;;;;;9.71;74.61;98201.19;341927;28;1472;-75
2023/03/28 00:56:36;;;;;;;273.70;89.65;;;;;;;9.66;74.22;98214.53;339845;28;1378;-76
2023/03/28 00:56:48;;;;;;;273.85;90.45;;;;;;;9.63;73.92;98209.50;335841;29;1754;-75
2023/03/28 00:57:00;;;;;;;272.75;91.05;;;;;;;9.63;74.08;98201.66;338122;29;799;-75
2023/03/28 00:57:10;;;;;;;272.77;91.43;;;;;;;9.62;74.10;98202.59;334095;29;1405;-75
2023/03/28 00:57:21;;;;;;;273.83;93.03;;;;;;;9.59;73.80;98196.72;334433;29;1302;-76
2023/03/28 00:57:32;;;;;;;273.40;93.00;;;;;;;9.58;73.81;98215.91;337330;29;1626;-75
2023/03/28 00:57:43;;;;;;;273.38;93.45;;;;;;;9.55;73.81;98201.28;339365;29;1149;-76
2023/03/28 00:57:54;;;;;;;273.83;92.57;;;;;;;9.55;73.41;98205.66;336670;29;1283;-75
2023/03/28 00:58:08;;;;;;;273.35;91.80;;;;;;;9.55;73.30;98210.88;334180;29;900;-77
2023/03/28 00:58:23;;;;;;;272.55;90.85;;;;;;;9.52;74.17;98209.31;336743;29;1024;-75
2023/03/28 00:58:36;;;;;;;272.80;90.76;;;;;;;9.51;73.74;98205.03;336587;29;1393;-76
2023/03/28 00:58:46;;;;;;;273.65;90.75;;;;;;;9.46;73.94;98198.38;334813;29;2085;-75
2023/03/28 00:58:57;;;;;;;275.42;91.07;;;;;;;9.47;73.97;98213.13;330933;29;3784;-75
2023/03/28 00:59:10;;;;;;;278.00;92.20;;;;;;;9.43;73.81;98211.63;336279;29;3150;-75
2023/03/28 00:59:22;;;;;;;277.73;92.57;;;;;;;9.46;74.25;98217.50;336356;29;1448;-75
2023/03/28 00:59:33;;;;;;;276.30;92.35;;;;;;;9.46;74.18;98212.28;335049;29;2106;-76
2023/03/28 00:59:44;;;;;;;275.43;92.87;;;;;;;9.47;74.30;98216.59;331755;29;889;-76
2023/03/28 00:59:55;;;;;;;275.40;92.72;;;;;;;9.45;74.44;98205.38;329233;30;863;-76
2023/03/28 01:00:11;;;;;;;274.47;91.60;;;;;;;9.53;74.10;98220.59;328568;30;1407;-76
2023/03/28 01:00:22;;;;;;;273.77;90.43;;;;;;;9.54;74.34;98220.47;326957;30;1352;-76
2023/03/28 01:00:33;;;;;;;275.02;91.13;;;;;;;9.56;74.13;98213.41;326072;30;1160;-76
2023/03/28 01:00:47;;;;;;;276.38;92.20;;;;;;;9.58;74.02;98219.38;325254;29;2094;-76
2023/03/28 01:00:58;;;;;;;277.40;91.93;;;;;;;9.54;74.22;98220.47;329094;30;1290;-75
2023/03/28 01:01:12;;;;;;;278.42;92.90;;;;;;;9.54;74.39;98217.88;323931;30;2143;-74
2023/03/28 01:01:23;;;;;;;274.80;92.38;;;;;;;9.53;74.04;98210.97;325968;30;2308;-74
2023/03/28 01:01:33;;;;;;;273.73;92.47;;;;;;;9.56;74.07;98217.78;323070;30;2770;-75
2023/03/28 01:01:44;;;;;;;273.47;91.73;;;;;;;9.51;74.17;98210.25;322669;30;2516;-74